Time;durP1;ratioP1;P1;durP2;ratioP2;P2;SDS_P1;SDS_P2;PMS_P1;PMS_P2;Temp;Humidity;BMP_temperature;BMP_pressure;BME280_temperature;BME280_humidity;BME280_pressure;Samples;Min_cycle;Max_cycle;Signal;HPM_P1;HPM_P2
2022/01/08 00:01:35;;;;;;;741.13;696.20;;;3.30;99.90;;;;;;5080215;28;20446;-83
2022/01/08 00:04:08;;;;;;;726.33;681.37;;;3.30;99.90;;;;;;5074161;28;20525;-84
2022/01/08 00:06:51;;;;;;;731.07;685.70;;;3.30;99.90;;;;;;5080664;28;20549;-84
2022/01/08 00:09:23;;;;;;;727.83;682.93;;;3.40;99.90;;;;;;5079087;28;20450;-84
2022/01/08 00:11:57;;;;;;;722.83;678.73;;;3.50;99.90;;;;;;5063385;28;20493;-83
2022/01/08 00:14:31;;;;;;;714.83;672.70;;;3.60;99.90;;;;;;5075776;28;20476;-84
2022/01/08 00:17:03;;;;;;;709.77;670.60;;;3.50;99.90;;;;;;5082673;28;20503;-83
2022/01/08 00:19:40;;;;;;;705.80;667.50;;;3.60;99.90;;;;;;5081557;28;20470;-84
2022/01/08 00:22:12;;;;;;;689.27;655.00;;;3.60;99.90;;;;;;5072183;28;20474;-83
2022/01/08 00:24:52;;;;;;;682.47;648.57;;;3.70;99.90;;;;;;5069147;28;20537;-83
2022/01/08 00:27:25;;;;;;;697.17;661.93;;;3.70;99.90;;;;;;5064068;28;20534;-84
2022/01/08 00:29:57;;;;;;;678.73;645.53;;;3.60;99.90;;;;;;5063613;28;20799;-84
2022/01/08 00:32:33;;;;;;;684.27;651.50;;;3.70;99.90;;;;;;5082335;28;20454;-83
2022/01/08 00:35:00;;;;;;;688.53;654.90;;;3.60;99.90;;;;;;5069491;28;20474;-83
2022/01/08 00:37:29;;;;;;;708.47;672.50;;;3.60;99.90;;;;;;5063833;28;20447;-83
2022/01/08 00:40:04;;;;;;;716.47;679.97;;;3.60;99.90;;;;;;5066260;28;20475;-83
2022/01/08 00:42:33;;;;;;;711.03;674.13;;;3.60;99.90;;;;;;5062336;28;20461;-83
2022/01/08 00:45:03;;;;;;;696.53;662.50;;;3.60;99.90;;;;;;5078125;28;20474;-83
2022/01/08 00:47:32;;;;;;;702.70;667.50;;;3.70;99.90;;;;;;5062778;28;20858;-83
2022/01/08 00:50:03;;;;;;;705.43;668.93;;;3.60;99.90;;;;;;5070978;28;20450;-83
2022/01/08 00:52:35;;;;;;;707.97;671.50;;;3.60;99.90;;;;;;5082090;28;20516;-83
2022/01/08 00:55:07;;;;;;;674.57;642.87;;;3.60;99.90;;;;;;5066012;28;20471;-83
2022/01/08 00:57:37;;;;;;;651.20;621.97;;;3.60;99.90;;;;;;5060541;28;20451;-84
2022/01/08 01:00:10;;;;;;;628.00;600.80;;;3.60;99.90;;;;;;5068254;28;20506;-83
2022/01/08 01:02:41;;;;;;;615.13;589.53;;;3.70;99.90;;;;;;5051198;28;20482;-83
2022/01/08 01:05:11;;;;;;;596.67;572.30;;;3.60;99.90;;;;;;5076706;28;20474;-84
2022/01/08 01:07:38;;;;;;;601.90;578.10;;;3.60;99.90;;;;;;5077917;28;20450;-83
2022/01/08 01:10:08;;;;;;;606.33;581.93;;;3.50;99.90;;;;;;5059460;28;20474;-83
2022/01/08 01:12:37;;;;;;;628.37;602.33;;;3.30;99.90;;;;;;5059577;28;20447;-84
2022/01/08 01:15:11;;;;;;;643.77;616.27;;;3.30;99.90;;;;;;5060098;28;20840;-82
2022/01/08 01:17:38;;;;;;;671.37;641.20;;;3.20;99.90;;;;;;5071529;28;21035;-83
2022/01/08 01:20:10;;;;;;;703.97;670.57;;;3.20;99.90;;;;;;5060402;28;20463;-83
2022/01/08 01:22:45;;;;;;;702.77;668.67;;;3.00;99.90;;;;;;5068914;28;20455;-83
2022/01/08 01:25:17;;;;;;;729.03;691.67;;;3.00;99.90;;;;;;5064115;28;20467;-83
2022/01/08 01:28:03;;;;;;;731.50;693.83;;;2.90;99.90;;;;;;5060441;28;20451;-83
2022/01/08 01:42:06;;;;;;;783.33;730.43;;;2.50;99.90;;;;;;5065862;28;20458;-83
2022/01/08 01:47:37;;;;;;;775.40;720.73;;;2.40;99.90;;;;;;5063524;28;20501;-84
2022/01/08 01:50:09;;;;;;;760.03;703.07;;;2.40;99.90;;;;;;5059121;28;20447;-83
2022/01/08 01:52:37;;;;;;;765.67;707.40;;;2.30;99.90;;;;;;5076645;28;20800;-83
2022/01/08 01:55:08;;;;;;;776.03;718.70;;;2.40;99.90;;;;;;5075207;28;20466;-83
2022/01/08 01:57:43;;;;;;;779.20;720.53;;;2.20;99.90;;;;;;5075931;28;20455;-84
2022/01/08 02:00:23;;;;;;;770.03;712.23;;;2.30;99.90;;;;;;5067629;28;20477;-83
2022/01/08 02:02:55;;;;;;;766.43;707.43;;;2.20;99.90;;;;;;5070759;28;20442;-83
2022/01/08 02:05:30;;;;;;;762.70;703.40;;;2.20;99.90;;;;;;5064753;28;20526;-83
2022/01/08 02:07:57;;;;;;;750.33;689.23;;;2.20;99.90;;;;;;5069466;28;20446;-83
2022/01/08 02:13:05;;;;;;;750.43;690.30;;;2.30;99.90;;;;;;5079193;28;20446;-83
2022/01/08 02:15:32;;;;;;;767.93;708.23;;;2.40;99.90;;;;;;5064268;28;20469;-83
2022/01/08 02:18:11;;;;;;;758.60;697.90;;;2.40;99.90;;;;;;5060405;28;20447;-83
2022/01/08 02:20:48;;;;;;;768.40;710.17;;;2.30;99.90;;;;;;5052686;28;20565;-83
2022/01/08 02:23:22;;;;;;;777.40;718.60;;;2.30;99.90;;;;;;5074611;28;20800;-83
2022/01/08 02:25:56;;;;;;;785.40;725.07;;;2.20;99.90;;;;;;5067087;28;20478;-83
2022/01/08 02:28:28;;;;;;;763.10;699.60;;;2.20;99.90;;;;;;5063594;28;20457;-83
2022/01/08 02:30:55;;;;;;;761.90;701.17;;;2.20;99.90;;;;;;5080075;28;20865;-83
2022/01/08 02:33:27;;;;;;;772.87;710.90;;;2.00;99.90;;;;;;5073895;28;20462;-83
2022/01/08 02:36:01;;;;;;;762.47;700.70;;;2.10;99.90;;;;;;5068644;28;20526;-83
2022/01/08 02:38:31;;;;;;;751.97;689.90;;;2.10;99.90;;;;;;5075331;28;20962;-83
2022/01/08 02:41:03;;;;;;;752.60;688.23;;;2.10;99.90;;;;;;5071688;28;20515;-83
2022/01/08 02:43:44;;;;;;;753.77;689.50;;;2.10;99.90;;;;;;5074653;28;20451;-84
2022/01/08 02:46:13;;;;;;;756.20;692.70;;;2.10;99.90;;;;;;5059296;28;20499;-83
2022/01/08 02:48:40;;;;;;;767.40;703.43;;;2.10;99.90;;;;;;5074722;28;20819;-83
2022/01/08 02:51:08;;;;;;;770.37;705.27;;;2.10;99.90;;;;;;5069218;28;20576;-83
2022/01/08 02:53:39;;;;;;;778.97;714.37;;;2.10;99.90;;;;;;5067513;28;20550;-83
2022/01/08 02:56:12;;;;;;;779.00;714.50;;;2.00;99.90;;;;;;5059586;28;20471;-83
2022/01/08 02:58:40;;;;;;;780.97;716.30;;;1.90;99.90;;;;;;5068105;28;20868;-83
2022/01/08 03:01:09;;;;;;;773.17;710.27;;;1.80;99.90;;;;;;5070957;28;20465;-83
2022/01/08 03:03:36;;;;;;;778.80;715.10;;;1.80;99.90;;;;;;5076568;28;20868;-83
2022/01/08 03:06:07;;;;;;;760.90;697.40;;;1.80;99.90;;;;;;5063176;28;20502;-83
2022/01/08 03:08:34;;;;;;;763.03;698.33;;;1.80;99.90;;;;;;5072918;28;20487;-83
2022/01/08 03:11:04;;;;;;;763.00;698.93;;;1.80;99.90;;;;;;5057543;28;20450;-83
2022/01/08 03:13:33;;;;;;;758.07;694.37;;;1.80;99.90;;;;;;5066053;28;20981;-83
2022/01/08 03:16:00;;;;;;;752.17;688.20;;;1.80;99.90;;;;;;5065701;28;20468;-83
2022/01/08 03:18:29;;;;;;;748.80;686.60;;;1.90;99.90;;;;;;5061765;28;20447;-85
2022/01/08 03:21:12;;;;;;;764.97;702.10;;;2.00;99.90;;;;;;5073133;28;20471;-83
2022/01/08 03:23:47;;;;;;;772.80;710.90;;;1.80;99.90;;;;;;5065381;28;20554;-83
2022/01/08 03:26:18;;;;;;;769.57;707.97;;;1.80;99.90;;;;;;5077764;28;20465;-83
2022/01/08 03:28:47;;;;;;;763.80;704.43;;;1.80;99.90;;;;;;5071135;28;20534;-83
2022/01/08 03:31:19;;;;;;;762.00;700.67;;;1.80;99.90;;;;;;5077952;28;20568;-84
2022/01/08 03:33:49;;;;;;;766.33;704.67;;;1.80;99.90;;;;;;5062793;28;20454;-83
2022/01/08 03:36:21;;;;;;;757.27;697.73;;;1.80;99.90;;;;;;5061148;28;20463;-83
2022/01/08 03:38:54;;;;;;;758.37;698.40;;;2.00;99.90;;;;;;5064942;28;20470;-83
2022/01/08 03:41:24;;;;;;;753.70;692.90;;;2.00;99.90;;;;;;5066155;28;20561;-83
2022/01/08 03:44:02;;;;;;;766.87;703.97;;;2.00;99.90;;;;;;5066209;28;20519;-83
2022/01/08 03:46:29;;;;;;;755.13;695.97;;;2.00;99.90;;;;;;5066627;28;20456;-84
2022/01/08 03:49:23;;;;;;;761.47;701.20;;;2.00;99.90;;;;;;5074830;28;20520;-83
2022/01/08 03:51:51;;;;;;;755.23;695.13;;;2.00;99.90;;;;;;5075467;28;20518;-82
2022/01/08 03:54:20;;;;;;;761.40;700.50;;;2.00;99.90;;;;;;5067532;28;20467;-82
2022/01/08 03:56:49;;;;;;;758.93;699.60;;;1.90;99.90;;;;;;5053443;28;20469;-83
2022/01/08 03:59:22;;;;;;;762.23;701.83;;;1.80;99.90;;;;;;5063788;28;20870;-83
2022/01/08 04:01:55;;;;;;;771.97;711.40;;;1.80;99.90;;;;;;5072823;28;20447;-83
2022/01/08 04:04:37;;;;;;;768.17;707.67;;;1.80;99.90;;;;;;5065897;28;20470;-83
2022/01/08 04:07:04;;;;;;;762.80;702.77;;;1.70;99.90;;;;;;5076682;28;20454;-83
2022/01/08 04:09:37;;;;;;;770.70;709.40;;;1.80;99.90;;;;;;5069623;28;20454;-82
2022/01/08 04:12:06;;;;;;;766.73;707.77;;;1.90;99.90;;;;;;5066804;28;20470;-83
2022/01/08 04:14:47;;;;;;;760.00;697.40;;;1.80;99.90;;;;;;5066694;28;20558;-83
2022/01/08 04:17:21;;;;;;;754.43;693.93;;;1.90;99.90;;;;;;5055899;28;20455;-83
2022/01/08 04:19:57;;;;;;;759.50;700.10;;;1.90;99.90;;;;;;5055001;28;21002;-84
2022/01/08 04:22:28;;;;;;;763.57;705.67;;;1.80;99.90;;;;;;5040790;28;20835;-83
2022/01/08 04:24:57;;;;;;;773.10;714.93;;;1.90;99.90;;;;;;5043093;28;20506;-83
2022/01/08 04:27:27;;;;;;;781.30;723.47;;;1.80;99.90;;;;;;5049794;28;20902;-83
2022/01/08 04:29:54;;;;;;;774.37;716.50;;;1.80;99.90;;;;;;5048128;28;20519;-82
2022/01/08 04:32:23;;;;;;;772.23;711.87;;;1.70;99.90;;;;;;5056997;28;20458;-84
2022/01/08 04:34:54;;;;;;;759.93;700.63;;;1.90;99.90;;;;;;5043726;28;20530;-82
2022/01/08 04:37:23;;;;;;;754.50;694.73;;;1.80;99.90;;;;;;5059785;28;20458;-83
2022/01/08 04:39:50;;;;;;;756.90;697.93;;;1.80;99.90;;;;;;5042493;28;20453;-82
2022/01/08 04:42:23;;;;;;;756.93;698.03;;;1.80;99.90;;;;;;5056680;28;20464;-83
2022/01/08 04:44:50;;;;;;;748.10;688.80;;;1.80;99.90;;;;;;5046294;28;20475;-84
2022/01/08 04:47:35;;;;;;;749.33;691.60;;;1.90;99.90;;;;;;5056802;28;20795;-83
2022/01/08 04:50:12;;;;;;;755.17;696.27;;;1.80;99.90;;;;;;5045810;28;20475;-83
2022/01/08 04:52:45;;;;;;;761.67;703.27;;;1.90;99.90;;;;;;5043769;28;20479;-83
2022/01/08 04:55:12;;;;;;;762.23;703.53;;;1.80;99.90;;;;;;5052677;28;20483;-82
2022/01/08 04:58:10;;;;;;;744.77;687.80;;;1.80;99.90;;;;;;5052369;28;20916;-83
2022/01/08 05:00:39;;;;;;;761.40;704.10;;;1.90;99.90;;;;;;5056091;28;20512;-83
2022/01/08 05:03:23;;;;;;;764.10;706.30;;;1.80;99.90;;;;;;5042211;28;20522;-83
2022/01/08 05:11:41;;;;;;;748.07;686.50;;;1.60;99.90;;;;;;5040310;28;20473;-84
2022/01/08 05:14:12;;;;;;;755.50;694.63;;;1.60;99.90;;;;;;5039076;28;20491;-84
2022/01/08 05:16:41;;;;;;;765.63;700.27;;;1.50;99.90;;;;;;5063136;28;20803;-83
2022/01/08 05:19:21;;;;;;;781.50;717.30;;;1.60;99.90;;;;;;5062597;28;20447;-83
2022/01/08 05:21:57;;;;;;;788.40;719.87;;;1.40;99.90;;;;;;5060693;28;20536;-84
2022/01/08 05:24:25;;;;;;;795.23;726.37;;;1.20;99.90;;;;;;5060274;28;20479;-84
2022/01/08 05:26:56;;;;;;;803.90;733.83;;;1.00;99.90;;;;;;5061451;28;20475;-85
2022/01/08 05:29:26;;;;;;;807.90;734.30;;;1.00;99.90;;;;;;5079865;28;20482;-83
2022/01/08 05:32:08;;;;;;;814.83;740.57;;;0.80;99.90;;;;;;5080742;28;20450;-83
2022/01/08 05:34:54;;;;;;;811.43;734.40;;;0.80;99.90;;;;;;5060331;28;20474;-83
2022/01/08 05:37:24;;;;;;;822.73;743.77;;;0.80;99.90;;;;;;5070812;28;20451;-83
2022/01/08 05:39:55;;;;;;;836.87;755.47;;;0.80;99.90;;;;;;5074735;28;20476;-83
2022/01/08 05:42:22;;;;;;;824.60;742.83;;;0.80;99.90;;;;;;5078737;28;20454;-85
2022/01/08 05:47:35;;;;;;;840.10;757.90;;;0.70;99.90;;;;;;5043085;22;20488;-84
2022/01/08 05:50:11;;;;;;;851.17;766.13;;;0.80;99.90;;;;;;5027223;28;20480;-84
2022/01/08 05:52:42;;;;;;;845.67;760.83;;;0.70;99.90;;;;;;5018558;28;20444;-84
2022/01/08 05:55:12;;;;;;;840.57;754.70;;;0.90;99.90;;;;;;5012536;28;20986;-83
2022/01/08 05:57:39;;;;;;;844.90;757.80;;;0.90;99.90;;;;;;5017509;28;20514;-83
2022/01/08 06:00:07;;;;;;;853.43;765.73;;;0.90;99.90;;;;;;5017662;28;20460;-83
2022/01/08 06:02:37;;;;;;;862.40;775.50;;;0.90;99.90;;;;;;5017641;28;20485;-83
2022/01/08 06:05:05;;;;;;;872.63;782.93;;;0.90;99.90;;;;;;5017078;28;21128;-83
2022/01/08 06:07:39;;;;;;;866.20;778.67;;;0.90;99.90;;;;;;5016263;28;20485;-82
2022/01/08 06:10:12;;;;;;;871.70;782.47;;;1.00;99.90;;;;;;5018495;28;20515;-84
2022/01/08 06:12:39;;;;;;;889.50;801.93;;;1.00;99.90;;;;;;5017411;28;20454;-80
2022/01/08 06:15:06;;;;;;;889.33;799.80;;;0.90;99.90;;;;;;5019209;28;20473;-84
2022/01/08 06:17:37;;;;;;;906.60;815.93;;;0.90;99.90;;;;;;5016600;28;20464;-84
2022/01/08 06:20:05;;;;;;;905.97;816.43;;;0.90;99.90;;;;;;5015820;28;20450;-84
2022/01/08 06:22:31;;;;;;;912.80;824.03;;;0.80;99.90;;;;;;5016943;28;20453;-84
2022/01/08 06:24:58;;;;;;;906.67;817.57;;;0.90;99.90;;;;;;5015700;28;20485;-83
2022/01/08 06:27:25;;;;;;;896.07;806.30;;;0.90;99.90;;;;;;5017033;28;20456;-84
2022/01/08 06:29:52;;;;;;;898.63;809.43;;;1.00;99.90;;;;;;5016602;28;20453;-84
2022/01/08 06:32:20;;;;;;;888.93;798.93;;;0.90;99.90;;;;;;5016113;28;20532;-82
2022/01/08 06:34:48;;;;;;;891.25;802.33;;;1.00;99.90;;;;;;5015451;28;20564;-83
2022/01/08 06:37:15;;;;;;;902.10;813.20;;;1.00;99.90;;;;;;5011292;28;20573;-85
2022/01/08 06:39:42;;;;;;;885.20;796.83;;;0.90;99.90;;;;;;5016561;28;20453;-83
2022/01/08 06:42:08;;;;;;;866.53;781.33;;;1.00;99.90;;;;;;5015497;28;20867;-83
2022/01/08 06:44:35;;;;;;;865.47;777.90;;;1.10;99.90;;;;;;5016439;28;20484;-83
2022/01/08 06:47:02;;;;;;;868.37;781.83;;;1.10;99.90;;;;;;5016672;28;21013;-83
2022/01/08 06:49:30;;;;;;;878.77;791.50;;;1.10;99.90;;;;;;5015632;28;20511;-83
2022/01/08 06:51:58;;;;;;;879.63;791.63;;;1.00;99.90;;;;;;5012488;28;20525;-82
2022/01/08 06:54:30;;;;;;;888.17;799.77;;;1.00;99.90;;;;;;5014950;28;20476;-83
2022/01/08 06:56:56;;;;;;;883.63;795.77;;;1.00;99.90;;;;;;5015781;28;20532;-85
2022/01/08 06:59:23;;;;;;;895.47;806.20;;;0.90;99.90;;;;;;5014982;28;20481;-86
2022/01/08 07:01:51;;;;;;;898.27;806.67;;;0.90;99.90;;;;;;5013860;28;20296;-84
2022/01/08 07:04:17;;;;;;;894.27;802.17;;;1.00;99.90;;;;;;5006440;28;20506;-85
2022/01/08 07:06:44;;;;;;;894.40;804.57;;;1.00;99.90;;;;;;5000799;28;20461;-85
2022/01/08 07:09:13;;;;;;;899.90;810.40;;;0.90;99.90;;;;;;5016612;28;20532;-85
2022/01/08 07:11:40;;;;;;;909.60;819.60;;;1.00;99.90;;;;;;5015299;28;20456;-84
2022/01/08 07:14:07;;;;;;;908.20;817.70;;;0.90;99.90;;;;;;5012758;28;20810;-85
2022/01/08 07:16:34;;;;;;;915.43;824.63;;;0.80;99.90;;;;;;5016326;28;20564;-85
2022/01/08 07:19:10;;;;;;;920.40;829.50;;;0.80;99.90;;;;;;5016222;28;20457;-85
2022/01/08 07:21:51;;;;;;;924.67;832.43;;;0.80;99.90;;;;;;5014063;28;20476;-84
2022/01/08 07:24:21;;;;;;;930.10;837.43;;;0.90;99.90;;;;;;5016637;28;20875;-84
2022/01/08 07:26:52;;;;;;;939.57;846.70;;;0.80;99.90;;;;;;5015737;28;20878;-85
2022/01/08 07:29:19;;;;;;;923.57;831.23;;;0.70;99.90;;;;;;5014605;28;20461;-85
2022/01/08 07:32:04;;;;;;;922.73;829.67;;;0.70;99.90;;;;;;5015059;28;20965;-84
2022/01/08 07:34:36;;;;;;;924.30;828.70;;;0.80;99.90;;;;;;4994990;28;21089;-86
2022/01/08 07:37:04;;;;;;;907.87;814.97;;;0.90;99.90;;;;;;4995609;28;20480;-84
2022/01/08 07:39:32;;;;;;;902.00;808.97;;;1.00;99.90;;;;;;5013423;28;20464;-85
2022/01/08 07:42:10;;;;;;;912.93;820.30;;;1.00;99.90;;;;;;5015067;28;20493;-84
2022/01/08 07:45:01;;;;;;;920.80;827.10;;;1.10;99.90;;;;;;5015709;28;20477;-84
2022/01/08 07:47:33;;;;;;;916.60;823.33;;;1.10;99.90;;;;;;5014544;28;20453;-85
2022/01/08 07:50:06;;;;;;;890.23;797.73;;;1.10;99.90;;;;;;5015468;28;20457;-86
2022/01/08 07:52:33;;;;;;;879.37;788.17;;;1.10;99.90;;;;;;5015948;28;20813;-84
2022/01/08 07:55:17;;;;;;;867.30;777.27;;;1.20;99.90;;;;;;5014901;28;20556;-84
2022/01/08 07:57:44;;;;;;;873.77;784.10;;;1.30;99.90;;;;;;5017114;28;20449;-84
2022/01/08 08:00:12;;;;;;;877.80;788.63;;;1.40;99.90;;;;;;5019288;28;20472;-84
2022/01/08 08:02:42;;;;;;;866.40;777.87;;;1.40;99.90;;;;;;5018985;28;20477;-85
2022/01/08 08:05:11;;;;;;;865.30;777.60;;;1.40;99.90;;;;;;5019272;28;20500;-85
2022/01/08 08:07:41;;;;;;;854.50;766.97;;;1.50;99.90;;;;;;5019219;28;20547;-85
2022/01/08 08:10:11;;;;;;;842.23;754.90;;;1.50;99.90;;;;;;5019797;28;20476;-85
2022/01/08 08:12:44;;;;;;;833.57;746.50;;;1.70;99.90;;;;;;5018172;28;20456;-85
2022/01/08 08:15:15;;;;;;;842.63;755.93;;;1.80;99.90;;;;;;5018850;28;20475;-83
2022/01/08 08:17:49;;;;;;;839.27;752.43;;;1.60;99.90;;;;;;5018374;28;20453;-83
2022/01/08 08:20:21;;;;;;;826.23;739.53;;;1.70;99.90;;;;;;5020555;28;20449;-82
2022/01/08 08:22:50;;;;;;;830.73;745.70;;;1.60;99.90;;;;;;5018612;28;20811;-83
2022/01/08 08:25:18;;;;;;;825.70;740.33;;;1.60;99.90;;;;;;5020717;28;20920;-81
2022/01/08 08:27:46;;;;;;;823.47;739.67;;;1.70;99.90;;;;;;5020369;28;20512;-81
2022/01/08 08:30:15;;;;;;;819.13;734.87;;;1.70;99.90;;;;;;5019800;28;20460;-82
2022/01/08 08:32:42;;;;;;;824.57;739.83;;;1.70;99.90;;;;;;5020421;28;20452;-82
2022/01/08 08:35:11;;;;;;;819.30;735.70;;;1.90;99.90;;;;;;5019623;28;20503;-81
2022/01/08 08:37:40;;;;;;;823.23;739.97;;;1.90;99.90;;;;;;5002828;28;20489;-81
2022/01/08 08:40:09;;;;;;;813.93;731.03;;;1.90;99.90;;;;;;5019309;28;20460;-82
2022/01/08 08:45:22;;;;;;;836.20;753.37;;;2.10;99.90;;;;;;5015452;28;20479;-83
2022/01/08 08:47:51;;;;;;;847.80;764.83;;;2.10;99.90;;;;;;5018961;28;20453;-83
2022/01/08 08:50:18;;;;;;;839.77;757.10;;;2.00;99.90;;;;;;5019056;28;20952;-83
2022/01/08 08:52:50;;;;;;;833.97;752.93;;;2.00;99.90;;;;;;5017909;28;20445;-83
2022/01/08 08:55:18;;;;;;;814.97;735.00;;;2.20;99.90;;;;;;5019175;28;20527;-82
2022/01/08 08:57:53;;;;;;;813.13;734.33;;;2.20;99.90;;;;;;5019667;28;20449;-83
2022/01/08 09:00:32;;;;;;;798.03;721.43;;;2.20;99.90;;;;;;5020533;28;20519;-84
2022/01/08 09:03:29;;;;;;;807.73;731.47;;;2.30;99.90;;;;;;5021676;28;20977;-83
2022/01/08 09:06:57;;;;;;;829.03;752.03;;;2.30;99.90;;;;;;5020888;28;20536;-84
2022/01/08 09:10:25;;;;;;;829.27;755.30;;;2.20;99.90;;;;;;5015917;28;20485;-88
2022/01/08 09:13:43;;;;;;;835.57;759.87;;;2.50;99.90;;;;;;5013595;28;20440;-85
2022/01/08 09:20:42;;;;;;;833.20;762.60;;;2.50;99.90;;;;;;4939857;29;20457;-84
2022/01/08 09:27:12;;;;;;;806.70;742.90;;;2.80;99.90;;;;;;4952370;29;20542;-83
2022/01/08 09:29:50;;;;;;;795.20;733.73;;;3.10;99.90;;;;;;4959431;29;21089;-86
2022/01/08 09:36:22;;;;;;;803.03;743.43;;;3.30;99.90;;;;;;4931450;29;20874;-84
2022/01/08 09:52:39;;;;;;;786.03;734.63;;;3.40;99.90;;;;;;4969511;28;20453;-84
2022/01/08 09:58:33;;;;;;;795.87;745.77;;;3.50;99.90;;;;;;5147715;23;20563;-86
2022/01/08 10:38:54;;;;;;;512.67;490.97;;;3.80;99.90;;;;;;5006901;28;20506;-85
2022/01/08 10:59:26;;;;;;;277.33;267.20;;;4.90;99.90;;;;;;5013192;28;20448;-84
2022/01/08 11:02:39;;;;;;;133.47;127.67;;;4.90;99.90;;;;;;5017434;28;20568;-84
2022/01/08 11:09:41;;;;;;;;;;;;;;;;;;;;;
2022/01/08 11:30:45;;;;;;;;;;;;;;;;;;;;;
2022/01/08 12:27:46;;;;;;;8.30;3.70;;;5.20;84.60;;;;;;5065642;28;20460;-83
2022/01/08 12:30:44;;;;;;;8.90;3.40;;;5.10;81.00;;;;;;4986665;28;20567;-83
2022/01/08 12:33:47;;;;;;;13.20;4.60;;;5.00;83.40;;;;;;5055475;28;20456;-84
2022/01/08 12:44:22;;;;;;;9.03;4.90;;;5.00;88.50;;;;;;4925141;28;20603;-85
2022/01/08 13:38:43;;;;;;;6.70;3.63;;;4.70;88.50;;;;;;5054808;28;20452;-82
2022/01/08 13:45:53;;;;;;;7.40;3.93;;;4.60;89.50;;;;;;4928647;28;20473;-82
2022/01/08 13:48:47;;;;;;;3.80;2.17;;;4.40;91.50;;;;;;4943506;28;20833;-83
2022/01/08 13:56:13;;;;;;;5.43;3.73;;;4.20;93.90;;;;;;4918245;29;20476;-84
2022/01/08 14:13:15;;;;;;;26.53;25.30;;;3.80;99.50;;;;;;4783809;29;20490;-83
2022/01/08 14:15:54;;;;;;;26.87;25.70;;;3.70;99.90;;;;;;4897812;28;20889;-83
2022/01/08 14:18:37;;;;;;;208.60;202.07;;;3.60;99.90;;;;;;5016363;28;20469;-84
2022/01/08 14:21:59;;;;;;;353.90;342.80;;;3.40;99.90;;;;;;5034936;28;20452;-83
2022/01/08 14:25:24;;;;;;;117.90;114.00;;;3.30;99.90;;;;;;4965329;28;20887;-83
2022/01/08 14:45:38;;;;;;;589.03;568.40;;;3.10;99.90;;;;;;5042521;22;20485;-81
2022/01/08 14:49:15;;;;;;;641.40;616.23;;;3.00;99.90;;;;;;5011196;28;20469;-82
2022/01/08 15:05:36;;;;;;;758.17;720.00;;;2.90;99.90;;;;;;5100968;23;20565;-83
2022/01/08 15:32:22;;;;;;;812.50;759.40;;;2.90;99.90;;;;;;4749868;30;20458;-83
2022/01/08 15:51:50;;;;;;;796.07;740.93;;;3.10;99.90;;;;;;4886035;29;20503;-84
2022/01/08 15:54:21;;;;;;;798.57;741.03;;;3.00;99.90;;;;;;4990627;28;20471;-82
2022/01/08 15:56:48;;;;;;;788.60;730.53;;;3.00;99.90;;;;;;5034762;28;20802;-82
2022/01/08 15:59:18;;;;;;;800.40;743.00;;;3.00;99.90;;;;;;5035169;28;21008;-83
2022/01/08 16:11:24;;;;;;;774.73;719.23;;;3.20;99.90;;;;;;5012418;28;20627;-84
2022/01/08 16:14:00;;;;;;;782.00;727.87;;;3.20;99.90;;;;;;5034127;28;20452;-83
2022/01/08 16:16:31;;;;;;;790.07;736.90;;;3.30;99.90;;;;;;5024735;28;20457;-83
2022/01/08 16:19:30;;;;;;;780.07;726.00;;;3.30;99.90;;;;;;5034846;28;20508;-84
2022/01/08 16:26:05;;;;;;;789.00;738.70;;;3.20;99.90;;;;;;5026786;28;20555;-84
2022/01/08 16:32:58;;;;;;;;;;;;;;;;;;;;;
2022/01/08 16:36:30;;;;;;;;;;;;;;;;;;;;;
2022/01/08 16:49:13;;;;;;;761.90;713.73;;;3.40;99.90;;;;;;4971982;28;20447;-85
2022/01/08 16:52:18;;;;;;;766.63;719.37;;;3.40;99.90;;;;;;4994399;28;20697;-84
2022/01/08 16:55:34;;;;;;;;;;;;;;;;;;;;;
2022/01/08 17:09:08;;;;;;;678.00;645.83;;;3.80;99.90;;;;;;4862911;29;20913;-84
2022/01/08 17:17:39;;;;;;;616.60;590.57;;;4.00;99.90;;;;;;4978273;28;20525;-81
2022/01/08 17:20:22;;;;;;;650.27;622.87;;;4.10;99.90;;;;;;4946349;28;20506;-81
2022/01/08 17:23:25;;;;;;;673.57;643.97;;;4.10;99.90;;;;;;4979552;28;20458;-81
2022/01/08 17:26:17;;;;;;;665.20;636.97;;;4.00;99.90;;;;;;4963303;28;20475;-81
2022/01/08 17:28:51;;;;;;;650.57;624.57;;;4.00;99.90;;;;;;4959592;29;20959;-80
2022/01/08 17:32:09;;;;;;;681.23;652.13;;;4.10;99.90;;;;;;4959923;29;20456;-81
2022/01/08 18:06:08;;;;;;;730.57;694.87;;;4.00;99.90;;;;;;4888876;29;20912;-82
2022/01/08 18:08:47;;;;;;;726.97;691.33;;;4.00;99.90;;;;;;4904177;29;20453;-81
2022/01/08 18:56:38;;;;;;;508.80;489.80;;;4.40;99.90;;;;;;4734123;30;20982;-84
2022/01/08 19:03:32;;;;;;;497.93;479.83;;;4.50;99.90;;;;;;4760811;30;20576;-85
2022/01/08 19:20:22;;;;;;;465.27;448.83;;;4.40;99.90;;;;;;4747954;30;20485;-85
2022/01/08 20:28:06;;;;;;;694.77;661.53;;;4.50;99.90;;;;;;4821023;29;20460;-81
2022/01/08 20:33:58;;;;;;;713.90;673.63;;;4.50;99.90;;;;;;4933192;29;20457;-82
2022/01/08 20:55:41;;;;;;;690.67;660.43;;;4.60;99.90;;;;;;4899397;29;20486;-82
2022/01/08 20:58:11;;;;;;;715.60;680.17;;;4.70;99.90;;;;;;4910406;29;20461;-82
2022/01/08 21:00:42;;;;;;;728.77;688.53;;;4.70;99.90;;;;;;4930647;28;20847;-82
2022/01/08 21:06:01;;;;;;;734.80;694.10;;;4.70;99.90;;;;;;4967986;28;20470;-81
2022/01/08 21:09:03;;;;;;;734.60;688.13;;;4.70;99.90;;;;;;4979191;28;20450;-82
2022/01/08 21:12:01;;;;;;;720.70;673.03;;;4.80;99.90;;;;;;4973494;28;20541;-82
2022/01/08 21:20:29;;;;;;;732.53;687.63;;;4.70;99.90;;;;;;4966623;28;20489;-81
2022/01/08 21:22:56;;;;;;;728.40;683.00;;;4.70;99.90;;;;;;4978168;28;20454;-82
2022/01/08 21:32:11;;;;;;;743.20;695.00;;;4.70;99.90;;;;;;4941775;29;20463;-82
2022/01/08 21:46:58;;;;;;;750.97;702.80;;;4.70;99.90;;;;;;5050804;22;20480;-82
2022/01/08 21:49:31;;;;;;;743.23;695.87;;;4.80;99.90;;;;;;5036430;28;20516;-81
2022/01/08 21:58:45;;;;;;;716.10;676.90;;;4.70;99.90;;;;;;4929799;29;21055;-82
2022/01/08 22:01:24;;;;;;;693.50;660.60;;;4.90;99.90;;;;;;4942125;28;20499;-82
2022/01/08 22:07:06;;;;;;;688.77;657.47;;;5.00;99.90;;;;;;5016825;28;20973;-82
2022/01/08 22:09:45;;;;;;;706.93;673.07;;;5.00;99.90;;;;;;5036569;28;20974;-82
2022/01/08 22:12:21;;;;;;;709.97;675.60;;;5.00;99.90;;;;;;5037306;28;20507;-82
2022/01/08 22:15:19;;;;;;;715.47;680.77;;;5.00;99.90;;;;;;5035305;28;20475;-82
2022/01/08 22:18:00;;;;;;;704.27;671.10;;;4.90;99.90;;;;;;5036507;28;20440;-81
2022/01/08 22:20:30;;;;;;;712.93;679.47;;;4.90;99.90;;;;;;5036360;28;20476;-81
2022/01/08 22:22:59;;;;;;;702.30;670.20;;;4.80;99.90;;;;;;5036760;28;20480;-81
2022/01/08 22:25:34;;;;;;;718.90;684.30;;;4.90;99.90;;;;;;5036850;28;20523;-82
2022/01/08 22:28:31;;;;;;;704.47;671.90;;;5.00;99.90;;;;;;5036260;28;20513;-82
2022/01/08 22:31:00;;;;;;;715.20;681.43;;;4.90;99.90;;;;;;5036908;28;20452;-82
2022/01/08 22:33:31;;;;;;;721.47;685.57;;;4.90;99.90;;;;;;5036823;28;20518;-82
2022/01/08 22:36:04;;;;;;;725.70;689.00;;;4.90;99.90;;;;;;5036532;28;20902;-82
2022/01/08 22:38:54;;;;;;;719.57;684.50;;;4.80;99.90;;;;;;5035536;28;20456;-83
2022/01/08 22:41:55;;;;;;;728.93;690.63;;;4.90;99.90;;;;;;5036938;28;20480;-83
2022/01/08 22:48:03;;;;;;;721.50;681.83;;;4.80;99.90;;;;;;4994175;28;20464;-83
2022/01/08 22:54:54;;;;;;;;;;;;;;;;;;;;;
2022/01/08 22:57:59;;;;;;;735.57;696.30;;;4.80;99.90;;;;;;5013185;28;21019;-83
2022/01/08 23:04:22;;;;;;;759.30;715.57;;;4.90;99.90;;;;;;4974206;28;20946;-82
2022/01/08 23:07:17;;;;;;;752.17;709.30;;;4.80;99.90;;;;;;5018798;28;20475;-82
2022/01/08 23:09:53;;;;;;;749.50;703.40;;;4.90;99.90;;;;;;5035700;28;20449;-82
2022/01/08 23:12:20;;;;;;;751.17;703.10;;;4.70;99.90;;;;;;5036258;28;20786;-82
2022/01/08 23:14:52;;;;;;;759.60;707.23;;;4.80;99.90;;;;;;5036214;28;20468;-82
2022/01/08 23:17:26;;;;;;;752.40;697.33;;;4.70;99.90;;;;;;5035985;28;20472;-81
2022/01/08 23:19:54;;;;;;;755.07;697.63;;;4.70;99.90;;;;;;5035496;28;20538;-81
2022/01/08 23:22:25;;;;;;;752.03;693.57;;;4.60;99.90;;;;;;5035315;28;20902;-82
2022/01/08 23:24:59;;;;;;;754.00;693.17;;;4.70;99.90;;;;;;5036186;28;20483;-82
2022/01/08 23:27:26;;;;;;;759.77;698.00;;;4.60;99.90;;;;;;5035680;28;20449;-82
2022/01/08 23:29:54;;;;;;;756.70;694.50;;;4.50;99.90;;;;;;5036851;28;20462;-82